| time (UTC) | temp F | wind direction | speed MPH | gust MPH | rain 1hr in | rain 24hr in | rain mn in | humidity % | barometer mb |
| 20260906012050 | 84 | 0 | 0.0 | 1.0 | 0.00 | 0.00 | 0.00 | 73 | 1010.4 |
| 20260906011032 | 85 | 0.0 | 0.0 | 0.00 | 0.00 | 0.00 | 71 | 1010.2 | |
| 20260906010034 | 85 | 0.0 | 0.0 | 0.00 | 0.00 | 0.00 | 70 | 1010.1 | |
| 20260906005035 | 86 | 0.0 | 0.0 | 0.00 | 0.00 | 0.00 | 68 | 1010.0 | |
| 20260906004018 | 86 | 0.0 | 0.0 | 0.00 | 0.00 | 0.00 | 67 | 1010.0 | |
| 20260906003018 | 87 | 23 | 0.0 | 2.0 | 0.00 | 0.00 | 0.00 | 64 | 1010.0 |
| 20260906002026 | 88 | 348 | 1.0 | 2.0 | 0.00 | 0.00 | 0.00 | 63 | 1010.1 |
| 20260906001022 | 88 | 0.0 | 0.0 | 0.00 | 0.00 | 0.00 | 62 | 1010.1 | |
| 20260906000020 | 89 | 68 | 0.0 | 2.0 | 0.00 | 0.00 | 0.00 | 61 | 1010.1 |
| 20260905235028 | 90 | 258 | 1.0 | 2.0 | 0.00 | 0.00 | 0.00 | 59 | 1010.1 |
| 20260905234052 | 91 | 279 | 0.0 | 2.0 | 0.00 | 0.00 | 0.00 | 57 | 1010.1 |
| 20260905233032 | 91 | 102 | 1.0 | 3.0 | 0.00 | 0.00 | 0.00 | 57 | 1010.0 |
| 20260905232029 | 92 | 266 | 2.0 | 2.0 | 0.00 | 0.00 | 0.00 | 56 | 1010.0 |
| 20260905231053 | 92 | 0.0 | 0.0 | 0.00 | 0.00 | 0.00 | 57 | 1010.0 | |
| 20260905230029 | 91 | 161 | 0.0 | 2.0 | 0.00 | 0.00 | 0.00 | 59 | 1010.2 |
| 20260905225031 | 91 | 137 | 1.0 | 2.0 | 0.00 | 0.00 | 0.00 | 60 | 1010.3 |
| 20260905224033 | 94 | 152 | 3.0 | 6.0 | 0.00 | 0.00 | 0.00 | 57 | 1010.4 |
| 20260905223034 | 94 | 131 | 1.0 | 3.0 | 0.00 | 0.00 | 0.00 | 56 | 1010.3 |
| 20260905222054 | 95 | 155 | 2.0 | 3.0 | 0.00 | 0.00 | 0.00 | 55 | 1009.9 |
| 20260905221018 | 95 | 274 | 3.0 | 5.0 | 0.00 | 0.00 | 0.00 | 53 | 1010.2 |
| 20260905220038 | 95 | 276 | 2.0 | 4.0 | 0.00 | 0.00 | 0.00 | 55 | 1009.9 |
| 20260905215026 | 95 | 243 | 2.0 | 4.0 | 0.00 | 0.00 | 0.00 | 52 | 1009.8 |
| 20260905214022 | 97 | 260 | 3.0 | 5.0 | 0.00 | 0.00 | 0.00 | 45 | 1009.8 |
| 20260905213020 | 98 | 291 | 2.0 | 3.0 | 0.00 | 0.00 | 0.00 | 49 | 1009.8 |
| 20260905212027 | 94 | 11 | 4.0 | 5.0 | 0.00 | 0.00 | 0.00 | 56 | 1010.0 |
| 20260905211050 | 100 | 335 | 5.0 | 8.0 | 0.00 | 0.00 | 0.00 | 48 | 1010.0 |
| 20260905210031 | 100 | 0 | 3.0 | 6.0 | 0.00 | 0.00 | 0.00 | 48 | 1010.1 |
| 20260905205034 | 99 | 349 | 2.0 | 4.0 | 0.00 | 0.00 | 0.00 | 49 | 1010.1 |
| 20260905204018 | 99 | 337 | 3.0 | 5.0 | 0.00 | 0.00 | 0.00 | 50 | 1010.1 |
| 20260905203020 | 97 | 347 | 2.0 | 4.0 | 0.00 | 0.00 | 0.00 | 49 | 1010.3 |
| 20260905202021 | 98 | 9 | 2.0 | 4.0 | 0.00 | 0.00 | 0.00 | 50 | 1010.3 |
| 20260905201023 | 99 | 244 | 2.0 | 4.0 | 0.00 | 0.00 | 0.00 | 46 | 1010.5 |
| 20260905200026 | 101 | 306 | 3.0 | 5.0 | 0.00 | 0.00 | 0.00 | 47 | 1010.5 |
| 20260905195027 | 0 | 248 | 2.0 | 2.0 | 0.00 | 0.00 | 0.00 | 1010.5 | |
| 20260905194028 | 100 | 348 | 4.0 | 5.0 | 0.00 | 0.00 | 0.00 | 48 | 1010.6 |
| 20260905193030 | 99 | 273 | 3.0 | 6.0 | 0.00 | 0.00 | 0.00 | 47 | 1010.8 |
| 20260905192027 | 99 | 325 | 3.0 | 5.0 | 0.00 | 0.00 | 0.00 | 48 | 1010.9 |
| 20260905191022 | 99 | 264 | 4.0 | 9.0 | 0.00 | 0.00 | 0.00 | 47 | 1011.0 |
| 20260905190019 | 99 | 315 | 3.0 | 5.0 | 0.00 | 0.00 | 0.00 | 49 | 1011.2 |
| 20260905185021 | 99 | 261 | 2.0 | 7.0 | 0.00 | 0.00 | 0.00 | 48 | 1011.3 |
| 20260905184037 | 98 | 315 | 3.0 | 5.0 | 0.00 | 0.00 | 0.00 | 50 | 1011.4 |
| 20260905183020 | 98 | 341 | 2.0 | 4.0 | 0.00 | 0.00 | 0.00 | 50 | 1011.4 |
| 20260905182034 | 98 | 278 | 2.0 | 3.0 | 0.00 | 0.00 | 0.00 | 52 | 1011.6 |
| 20260905181018 | 98 | 276 | 3.0 | 7.0 | 0.00 | 0.00 | 0.00 | 51 | 1011.7 |
| 20260905180020 | 99 | 0 | 2.0 | 5.0 | 0.00 | 0.00 | 0.00 | 53 | 1011.8 |
| 20260905175022 | 100 | 256 | 3.0 | 5.0 | 0.00 | 0.00 | 0.00 | 52 | 1011.8 |
| 20260905174024 | 99 | 63 | 2.0 | 3.0 | 0.00 | 0.00 | 0.00 | 53 | 1011.8 |
| 20260905173020 | 100 | 339 | 2.0 | 5.0 | 0.00 | 0.00 | 0.00 | 52 | 1011.9 |
| 20260905172113 | 98 | 179 | 2.0 | 3.0 | 0.00 | 0.00 | 0.00 | 55 | 1011.9 |
| 20260905171034 | 98 | 356 | 2.0 | 5.0 | 0.00 | 0.00 | 0.00 | 54 | 1012.2 |
| 20260905170051 | 97 | 239 | 2.0 | 4.0 | 0.00 | 0.00 | 0.00 | 56 | 1012.2 |
| 20260905165027 | 97 | 192 | 1.0 | 3.0 | 0.00 | 0.00 | 0.00 | 59 | 1012.4 |
| 20260905164025 | 95 | 244 | 2.0 | 5.0 | 0.00 | 0.00 | 0.00 | 61 | 1012.6 |
| 20260905163020 | 95 | 302 | 3.0 | 4.0 | 0.00 | 0.00 | 0.00 | 61 | 1012.7 |
| 20260905162033 | 94 | 292 | 2.0 | 6.0 | 0.00 | 0.00 | 0.00 | 61 | 1012.6 |
| 20260905161018 | 94 | 266 | 4.0 | 5.0 | 0.00 | 0.00 | 0.00 | 61 | 1012.7 |
| 20260905160041 | 94 | 271 | 2.0 | 5.0 | 0.00 | 0.00 | 0.00 | 61 | 1012.7 |
| 20260905155043 | 93 | 224 | 2.0 | 3.0 | 0.00 | 0.00 | 0.00 | 63 | 1012.7 |
| 20260905154024 | 93 | 183 | 2.0 | 4.0 | 0.00 | 0.00 | 0.00 | 63 | 1012.7 |
| 20260905153027 | 92 | 268 | 2.0 | 5.0 | 0.00 | 0.00 | 0.00 | 65 | 1012.7 |
| 20260905152029 | 91 | 276 | 3.0 | 5.0 | 0.00 | 0.00 | 0.00 | 65 | 1012.7 |
| 20260905151031 | 91 | 280 | 3.0 | 4.0 | 0.00 | 0.00 | 0.00 | 65 | 1012.7 |
| 20260905150033 | 91 | 8 | 3.0 | 5.0 | 0.00 | 0.00 | 0.00 | 63 | 1012.6 |
| 20260905145033 | 90 | 262 | 2.0 | 5.0 | 0.00 | 0.00 | 0.00 | 64 | 1012.6 |
| 20260905144058 | 90 | 281 | 2.0 | 5.0 | 0.00 | 0.00 | 0.00 | 66 | 1012.5 |
| 20260905143017 | 89 | 346 | 2.0 | 5.0 | 0.00 | 0.00 | 0.00 | 68 | 1012.5 |
| 20260905142026 | 88 | 305 | 2.0 | 6.0 | 0.00 | 0.00 | 0.00 | 69 | 1012.6 |
| 20260905141022 | 87 | 287 | 3.0 | 4.0 | 0.00 | 0.00 | 0.00 | 71 | 1012.6 |
| 20260905140019 | 86 | 0.0 | 0.0 | 0.00 | 0.00 | 0.00 | 74 | 1012.5 | |
| 20260905135028 | 85 | 0.0 | 0.0 | 0.00 | 0.00 | 0.00 | 77 | 1012.5 | |
| 20260905134029 | 83 | 0.0 | 0.0 | 0.00 | 0.00 | 0.00 | 80 | 1012.5 | |
| 20260905133031 | 81 | 0.0 | 0.0 | 0.00 | 0.00 | 0.00 | 82 | 1012.4 | |
| 20260905132033 | 80 | 291 | 2.0 | 4.0 | 0.00 | 0.00 | 0.00 | 87 | 1012.4 |
| 20260905131017 | 78 | 0.0 | 0.0 | 0.00 | 0.00 | 0.00 | 92 | 1012.5 | |
| 20260905130020 | 78 | 0.0 | 0.0 | 0.00 | 0.00 | 0.00 | 93 | 1012.4 | |
| 20260905125022 | 77 | 0.0 | 0.0 | 0.00 | 0.00 | 0.00 | 93 | 1012.3 | |
| 20260905124045 | 76 | 0.0 | 0.0 | 0.00 | 0.00 | 0.00 | 93 | 1012.3 | |
| 20260905123026 | 76 | 0.0 | 0.0 | 0.00 | 0.00 | 0.00 | 93 | 1012.0 | |
| 20260905122029 | 76 | 0.0 | 0.0 | 0.00 | 0.00 | 0.00 | 93 | 1012.1 | |
| 20260905121030 | 75 | 0.0 | 0.0 | 0.00 | 0.00 | 0.00 | 93 | 1011.9 | |
| 20260905120030 | 75 | 0.0 | 0.0 | 0.00 | 0.00 | 0.00 | 93 | 1011.8 | |
| 20260905115027 | 75 | 0.0 | 0.0 | 0.00 | 0.00 | 0.00 | 93 | 1011.6 | |
| 20260905114024 | 75 | 0.0 | 0.0 | 0.00 | 0.00 | 0.00 | 93 | 1011.5 | |
| 20260905113019 | 75 | 0.0 | 0.0 | 0.00 | 0.00 | 0.00 | 93 | 1011.6 | |
| 20260905112022 | 75 | 0.0 | 0.0 | 0.00 | 0.00 | 0.00 | 93 | 1011.5 | |
| 20260905111019 | 75 | 0.0 | 0.0 | 0.00 | 0.00 | 0.00 | 93 | 1011.4 | |
| 20260905110020 | 75 | 0.0 | 0.0 | 0.00 | 0.00 | 0.00 | 93 | 1011.5 | |
| 20260905105017 | 75 | 0.0 | 0.0 | 0.00 | 0.00 | 0.00 | 93 | 1011.5 | |
| 20260905104024 | 76 | 0.0 | 0.0 | 0.00 | 0.00 | 0.00 | 93 | 1011.5 | |
| 20260905103022 | 76 | 0.0 | 0.0 | 0.00 | 0.00 | 0.00 | 93 | 1011.5 | |
| 20260905102024 | 76 | 0.0 | 0.0 | 0.00 | 0.00 | 0.00 | 93 | 1011.5 | |
| 20260905101027 | 76 | 0.0 | 0.0 | 0.00 | 0.00 | 0.00 | 92 | 1011.5 | |
| 20260905100049 | 76 | 0.0 | 0.0 | 0.00 | 0.00 | 0.00 | 91 | 1011.4 | |
| 20260905095030 | 76 | 0.0 | 0.0 | 0.00 | 0.00 | 0.00 | 91 | 1011.5 | |
| 20260905094030 | 77 | 0.0 | 0.0 | 0.00 | 0.00 | 0.00 | 91 | 1011.6 | |
| 20260905093031 | 77 | 0.0 | 0.0 | 0.00 | 0.00 | 0.00 | 90 | 1011.5 | |
| 20260905092027 | 77 | 0.0 | 0.0 | 0.00 | 0.00 | 0.00 | 90 | 1011.5 | |
| 20260905091024 | 77 | 0.0 | 0.0 | 0.00 | 0.00 | 0.00 | 90 | 1011.6 | |
| 20260905090020 | 77 | 0.0 | 0.0 | 0.00 | 0.00 | 0.00 | 90 | 1011.5 | |
| 20260905085034 | 78 | 0.0 | 0.0 | 0.00 | 0.00 | 0.00 | 89 | 1011.6 | |
| 20260905084018 | 78 | 0.0 | 0.0 | 0.00 | 0.00 | 0.00 | 89 | 1011.7 | |
| 20260905083020 | 78 | 0.0 | 0.0 | 0.00 | 0.00 | 0.00 | 88 | 1011.6 | |
| 20260905082022 | 78 | 0.0 | 0.0 | 0.00 | 0.00 | 0.00 | 88 | 1011.7 | |
| 20260905081045 | 78 | 0.0 | 0.0 | 0.00 | 0.00 | 0.00 | 88 | 1011.8 | |
| 20260905080027 | 78 | 0.0 | 0.0 | 0.00 | 0.00 | 0.00 | 88 | 1011.9 | |
| 20260905075029 | 78 | 0.0 | 0.0 | 0.00 | 0.00 | 0.00 | 88 | 1011.9 | |
| 20260905074033 | 78 | 0.0 | 0.0 | 0.00 | 0.00 | 0.00 | 89 | 1011.9 | |
| 20260905073033 | 78 | 0.0 | 0.0 | 0.00 | 0.00 | 0.00 | 89 | 1012.0 | |
| 20260905072034 | 78 | 0.0 | 0.0 | 0.00 | 0.00 | 0.00 | 89 | 1012.0 | |
| 20260905071019 | 78 | 0.0 | 0.0 | 0.00 | 0.00 | 0.00 | 89 | 1012.0 | |
| 20260905070018 | 78 | 0.0 | 0.0 | 0.00 | 0.00 | 0.00 | 88 | 1012.0 | |
| 20260905065027 | 78 | 0.0 | 0.0 | 0.00 | 0.00 | 0.00 | 88 | 1012.0 | |
| 20260905064022 | 78 | 0.0 | 0.0 | 0.00 | 0.00 | 0.00 | 87 | 1012.0 | |
| 20260905063039 | 79 | 0.0 | 0.0 | 0.00 | 0.00 | 0.00 | 88 | 1012.0 | |
| 20260905062032 | 79 | 0.0 | 0.0 | 0.00 | 0.00 | 0.00 | 87 | 1012.2 | |
| 20260905061034 | 79 | 0.0 | 0.0 | 0.00 | 0.00 | 0.00 | 86 | 1012.2 | |
| 20260905060031 | 79 | 0.0 | 0.0 | 0.00 | 0.00 | 0.00 | 86 | 1012.1 | |
| 20260905055033 | 79 | 0.0 | 0.0 | 0.00 | 0.00 | 0.00 | 86 | 1012.2 | |
| 20260905054018 | 79 | 0.0 | 0.0 | 0.00 | 0.00 | 0.00 | 86 | 1012.2 | |
| 20260905053021 | 79 | 0.0 | 0.0 | 0.00 | 0.00 | 0.00 | 86 | 1012.2 | |
| 20260905052021 | 79 | 0.0 | 0.0 | 0.00 | 0.00 | 0.00 | 86 | 1012.1 | |
| 20260905051022 | 79 | 0.0 | 0.0 | 0.00 | 0.00 | 0.00 | 86 | 1011.9 | |
| 20260905050045 | 79 | 338 | 0.0 | 1.0 | 0.00 | 0.00 | 0.00 | 87 | 1012.0 |
| 20260905045025 | 80 | 0.0 | 0.0 | 0.00 | 0.00 | 0.00 | 86 | 1012.0 | |
| 20260905044026 | 80 | 0.0 | 0.0 | 0.00 | 0.00 | 0.00 | 85 | 1012.0 | |
| 20260905043028 | 80 | 0.0 | 0.0 | 0.00 | 0.00 | 0.00 | 85 | 1011.9 | |
| 20260905042022 | 80 | 0.0 | 0.0 | 0.00 | 0.00 | 0.00 | 84 | 1011.9 | |
| 20260905041019 | 81 | 0.0 | 0.0 | 0.00 | 0.00 | 0.00 | 83 | 1011.8 | |
| 20260905040056 | 81 | 0.0 | 0.0 | 0.00 | 0.00 | 0.00 | 83 | 1011.9 | |
| 20260905035018 | 81 | 0.0 | 0.0 | 0.00 | 0.00 | 0.00 | 81 | 1011.9 | |
| 20260905034020 | 81 | 0.0 | 0.0 | 0.00 | 0.00 | 0.00 | 81 | 1011.9 | |
| 20260905033022 | 82 | 0.0 | 0.0 | 0.00 | 0.00 | 0.00 | 81 | 1012.0 | |
| 20260905032024 | 82 | 0.0 | 0.0 | 0.00 | 0.00 | 0.00 | 80 | 1012.1 | |
| 20260905031026 | 82 | 0.0 | 0.0 | 0.00 | 0.00 | 0.00 | 80 | 1012.0 | |
| 20260905030028 | 82 | 0.0 | 0.0 | 0.00 | 0.00 | 0.00 | 79 | 1012.1 | |
| 20260905025031 | 83 | 0.0 | 0.0 | 0.00 | 0.00 | 0.00 | 78 | 1012.1 | |
| 20260905024034 | 83 | 0.0 | 0.0 | 0.00 | 0.00 | 0.00 | 76 | 1012.0 | |
| 20260905023032 | 83 | 0.0 | 0.0 | 0.00 | 0.00 | 0.00 | 74 | 1011.8 | |
| 20260905022017 | 84 | 0.0 | 0.0 | 0.00 | 0.00 | 0.00 | 74 | 1011.7 | |
| 20260905021018 | 84 | 0.0 | 0.0 | 0.00 | 0.00 | 0.00 | 72 | 1011.6 | |
| 20260905020026 | 85 | 0.0 | 1.0 | 0.00 | 0.00 | 0.00 | 73 | 1011.5 | |
| 20260905015022 | 85 | 0.0 | 0.0 | 0.00 | 0.00 | 0.00 | 71 | 1011.3 | |
| 20260905014018 | 86 | 0.0 | 0.0 | 0.00 | 0.00 | 0.00 | 69 | 1011.3 | |
| 20260905013032 | 87 | 0.0 | 0.0 | 0.00 | 0.00 | 0.00 | 68 | 1011.3 |